Granite City, Illinois
Current Conditions -  °F | °C
As of 6:53 AM on Saturday 01 Nov 2014 (Local Time) from KCPS Reporting Station
Clear Clear  
Wind Chill: 25°   Ceiling: Unl
Heat Index: 33°   Visibility: 10mi
Dew Point: 22°   Wind: 10mph
Humidity: 64%   Direction: 350°N
Pressure: 30.44"   Gusts: NA
Location:  38.7°N, 90.15°W
Report Text: KCPS 011153Z 35009KT 10SM CLR 01/M06 A3044 RMK AO2 SLP311 T00061056 10022 20000 53009
Loading
Personal Weather Stations






























Interactive Weather Map
Tropical Storm Tracking
New forecast layout! Learn more

10-Day Weather Forecast

Advertisements
Track Severe Weather on mobile